createdAt,value
2019-03-12T00:03:38.971Z,7.03
2019-03-12T00:08:45.170Z,6.73
2019-03-12T00:13:51.510Z,6.80
2019-03-12T00:18:57.737Z,6.63
2019-03-12T00:24:04.091Z,6.60
2019-03-12T00:29:10.763Z,6.90
2019-03-12T00:34:18.214Z,8.13
2019-03-12T00:39:25.597Z,6.77
2019-03-12T00:44:31.944Z,8.07
2019-03-12T00:49:38.262Z,7.37
2019-03-12T00:54:46.857Z,7.33
2019-03-12T00:59:56.268Z,7.60
2019-03-12T01:05:02.299Z,7.93
2019-03-12T01:10:10.455Z,7.50
2019-03-12T01:15:17.132Z,7.77
2019-03-12T01:20:23.323Z,6.37
2019-03-12T01:25:29.676Z,6.67
2019-03-12T01:30:35.889Z,6.20
2019-03-12T01:35:42.213Z,5.53
2019-03-12T01:40:48.442Z,5.43
2019-03-12T01:45:54.665Z,6.80
2019-03-12T01:51:01.179Z,5.97
2019-03-12T01:56:07.690Z,5.62
2019-03-12T02:01:14.094Z,6.40
2019-03-12T02:06:20.507Z,5.28
2019-03-12T02:11:26.791Z,5.57
2019-03-12T02:16:34.970Z,6.83
2019-03-12T02:21:41.053Z,5.40
2019-03-12T02:26:47.961Z,5.37
2019-03-12T02:31:54.336Z,5.17
2019-03-12T02:37:00.722Z,5.27
2019-03-12T02:42:07.070Z,5.20
2019-03-12T02:47:13.379Z,4.57
2019-03-12T02:52:20.616Z,5.00
2019-03-12T02:57:26.814Z,4.40
2019-03-12T03:02:33.178Z,4.73
2019-03-12T03:08:01.411Z,4.50
2019-03-12T03:13:07.977Z,5.30
2019-03-12T03:18:14.379Z,5.03
2019-03-12T03:23:21.035Z,5.47
2019-03-12T03:28:27.436Z,5.15
2019-03-12T03:33:34.850Z,4.70
2019-03-12T03:38:42.943Z,5.77
2019-03-12T03:43:50.282Z,5.60
2019-03-12T03:48:56.511Z,6.33
2019-03-12T03:54:04.600Z,5.60
2019-03-12T03:59:10.992Z,5.87
2019-03-12T04:04:17.268Z,6.17
2019-03-12T04:09:23.606Z,5.83
2019-03-12T04:14:30.370Z,5.43
2019-03-12T04:19:36.758Z,6.07
2019-03-12T04:24:43.061Z,6.60
2019-03-12T04:29:49.418Z,6.17
2019-03-12T04:34:55.797Z,5.03
2019-03-12T04:40:02.137Z,6.13
2019-03-12T04:45:10.333Z,6.00
2019-03-12T04:50:16.994Z,4.97
2019-03-12T04:55:23.286Z,5.25
2019-03-12T05:00:29.712Z,5.70
2019-03-12T05:05:36.021Z,5.93
2019-03-12T05:10:42.319Z,4.97
2019-03-12T05:15:48.640Z,4.95
2019-03-12T05:20:54.955Z,5.73
2019-03-12T05:26:02.214Z,5.03
2019-03-12T05:31:08.506Z,5.50
2019-03-12T05:36:14.875Z,5.93
2019-03-12T05:41:21.173Z,4.20
2019-03-12T05:46:27.445Z,5.83
2019-03-12T05:51:33.842Z,5.07
2019-03-12T05:56:40.155Z,4.37
2019-03-12T06:01:46.951Z,4.08
2019-03-12T06:06:53.468Z,4.57
2019-03-12T06:11:59.956Z,4.13
2019-03-12T06:17:06.531Z,4.67
2019-03-12T06:22:12.778Z,4.30
2019-03-12T06:27:19.057Z,4.33
2019-03-12T06:32:41.818Z,4.78
2019-03-12T06:38:02.114Z,3.83
2019-03-12T06:43:19.463Z,4.63
2019-03-12T06:48:36.392Z,5.10
2019-03-12T06:54:13.981Z,4.03
2019-03-12T06:59:37.763Z,4.70
2019-03-12T07:05:03.021Z,4.20
2019-03-12T07:10:47.005Z,3.43
2019-03-12T07:16:12.084Z,4.10
2019-03-12T07:21:35.980Z,3.12
2019-03-12T07:27:01.856Z,3.70
2019-03-12T07:32:35.942Z,4.30
2019-03-12T07:37:47.996Z,3.43
2019-03-12T07:43:11.851Z,3.50
2019-03-12T07:48:39.811Z,3.30
2019-03-12T07:54:07.829Z,3.37
2019-03-12T07:59:38.695Z,3.73
2019-03-12T08:05:09.969Z,3.87
2019-03-12T08:10:33.661Z,2.77
2019-03-12T08:15:53.488Z,3.77
2019-03-12T08:21:21.733Z,3.03
2019-03-12T08:26:26.950Z,2.80
2019-03-12T08:31:51.039Z,7.60
2019-03-12T08:37:04.808Z,3.62
2019-03-12T08:42:54.003Z,3.43
2019-03-12T08:48:13.040Z,3.47
2019-03-12T08:53:37.072Z,2.90
2019-03-12T08:59:08.261Z,3.08
2019-03-12T09:04:35.023Z,2.70
2019-03-12T09:09:55.745Z,2.65
2019-03-12T09:15:16.690Z,3.60
2019-03-12T09:20:32.364Z,2.80
2019-03-12T09:25:57.382Z,2.80
2019-03-12T09:31:26.764Z,3.22
2019-03-12T09:36:54.935Z,3.00
2019-03-12T09:42:09.731Z,3.00
2019-03-12T09:47:26.486Z,2.87
2019-03-12T09:52:42.505Z,3.80
2019-03-12T09:58:04.286Z,3.20
2019-03-12T10:03:26.850Z,3.20
2019-03-12T10:08:48.539Z,2.87
2019-03-12T10:14:09.277Z,2.97
2019-03-12T10:19:35.535Z,3.33
2019-03-12T10:25:04.055Z,3.02
2019-03-12T10:30:22.252Z,2.53
2019-03-12T10:35:42.559Z,3.33
2019-03-12T10:41:06.047Z,2.77
2019-03-12T10:46:31.898Z,2.62
2019-03-12T10:51:38.343Z,3.23
2019-03-12T10:56:44.659Z,3.42
2019-03-12T11:01:50.968Z,2.30
2019-03-12T11:06:57.264Z,3.27
2019-03-12T11:12:03.549Z,2.70
2019-03-12T11:17:09.987Z,2.60
2019-03-12T11:22:16.417Z,2.83
2019-03-12T11:27:22.778Z,2.70
2019-03-12T11:32:29.253Z,4.00
2019-03-12T11:37:35.712Z,2.75
2019-03-12T11:42:42.316Z,2.70
2019-03-12T11:47:48.793Z,3.35
2019-03-12T11:52:58.310Z,1.87
2019-03-12T11:58:04.268Z,3.23
2019-03-12T12:03:12.843Z,2.27
2019-03-12T12:08:20.759Z,3.27
2019-03-12T12:13:32.924Z,2.60
2019-03-12T12:18:39.247Z,2.27
2019-03-12T12:23:45.812Z,2.60
2019-03-12T12:28:52.431Z,2.40
2019-03-12T12:34:00.096Z,1.97
2019-03-12T12:39:07.886Z,2.23
2019-03-12T12:44:19.540Z,2.67
2019-03-12T12:49:25.974Z,2.17
2019-03-12T12:54:32.317Z,2.13
2019-03-12T12:59:38.675Z,2.40
2019-03-12T13:04:45.021Z,2.30
2019-03-12T13:09:51.375Z,1.80
2019-03-12T13:14:58.129Z,1.80
2019-03-12T13:20:06.095Z,1.77
2019-03-12T13:25:12.954Z,2.13
2019-03-12T13:30:20.056Z,1.83
2019-03-12T13:35:26.645Z,1.97
2019-03-12T13:40:32.889Z,1.70
2019-03-12T13:45:39.478Z,1.50
2019-03-12T13:50:45.826Z,1.90
2019-03-12T13:55:52.255Z,2.10
2019-03-12T14:00:58.988Z,1.60
2019-03-12T14:06:05.548Z,1.80
2019-03-12T14:11:11.936Z,1.63
2019-03-12T14:16:18.362Z,1.80
2019-03-12T14:21:24.630Z,1.90
2019-03-12T14:26:30.958Z,2.00
2019-03-12T14:31:37.209Z,1.55
2019-03-12T14:36:43.513Z,1.70
2019-03-12T14:41:49.831Z,2.00
2019-03-12T14:46:56.247Z,1.63
2019-03-12T14:52:16.663Z,1.52
2019-03-12T14:57:24.010Z,1.50
2019-03-12T15:02:30.445Z,1.87
2019-03-12T15:07:37.060Z,1.50
2019-03-12T15:12:43.286Z,1.67
2019-03-12T15:17:49.595Z,2.10
2019-03-12T15:22:56.115Z,1.47
2019-03-12T15:28:02.357Z,2.02
2019-03-12T15:33:09.995Z,1.87
2019-03-12T15:38:16.616Z,1.80
2019-03-12T15:43:22.982Z,1.80
2019-03-12T15:48:30.273Z,2.30
2019-03-12T15:53:36.708Z,1.70
2019-03-12T15:58:44.872Z,1.50
2019-03-12T16:03:51.170Z,1.90
2019-03-12T16:08:58.849Z,1.55
2019-03-12T16:14:05.948Z,1.72
2019-03-12T16:19:12.308Z,1.45
2019-03-12T16:24:18.775Z,1.87
2019-03-12T16:29:25.062Z,1.70
2019-03-12T16:34:31.530Z,1.40
2019-03-12T16:39:38.039Z,1.40
2019-03-12T16:44:44.504Z,1.47
2019-03-12T16:49:52.220Z,1.30
2019-03-12T16:54:59.002Z,1.65
2019-03-12T17:00:08.639Z,1.87
2019-03-12T17:05:16.148Z,2.20
2019-03-12T17:10:25.677Z,1.70
2019-03-12T17:15:32.325Z,1.70
2019-03-12T17:20:38.752Z,1.60
2019-03-12T17:25:45.376Z,1.70
2019-03-12T17:30:53.467Z,1.80
2019-03-12T17:35:59.790Z,1.85
2019-03-12T17:41:06.127Z,1.67
2019-03-12T17:46:12.467Z,1.87
2019-03-12T17:51:20.326Z,2.20
2019-03-12T17:56:27.707Z,2.00
2019-03-12T18:01:35.640Z,1.83
2019-03-12T18:06:43.685Z,1.93
2019-03-12T18:11:50.548Z,1.87
2019-03-12T18:16:59.412Z,1.77
2019-03-12T18:22:08.751Z,1.70
2019-03-12T18:27:15.547Z,1.40
2019-03-12T18:32:24.099Z,1.60
2019-03-12T18:37:30.637Z,1.80
2019-03-12T18:42:37.011Z,2.37
2019-03-12T18:47:43.280Z,1.80
2019-03-12T18:52:49.686Z,1.70
2019-03-12T18:57:56.271Z,2.23
2019-03-12T19:03:02.583Z,2.00
2019-03-12T19:08:09.148Z,2.20
2019-03-12T19:13:15.659Z,2.20
2019-03-12T19:18:24.639Z,2.10
2019-03-12T19:23:30.945Z,2.30
2019-03-12T19:28:37.536Z,2.20
2019-03-12T19:33:46.376Z,2.40
2019-03-12T19:38:53.953Z,2.45
2019-03-12T19:44:00.290Z,2.07
2019-03-12T19:49:08.672Z,2.65
2019-03-12T19:54:15.031Z,2.30
2019-03-12T19:59:21.615Z,2.27
2019-03-12T20:04:27.925Z,2.37
2019-03-12T20:09:46.029Z,2.87
2019-03-12T20:15:35.404Z,3.10
2019-03-12T20:21:40.019Z,3.67
2019-03-12T20:27:39.713Z,2.43
2019-03-12T20:33:42.588Z,1.83
2019-03-12T20:39:34.900Z,1.10
2019-03-12T20:45:30.032Z,0.90
2019-03-12T20:51:25.606Z,1.10
2019-03-12T20:57:07.893Z,1.20
2019-03-12T21:03:00.661Z,1.70
2019-03-12T21:08:43.408Z,1.50
2019-03-12T21:14:38.597Z,2.00
2019-03-12T21:20:21.146Z,2.60
2019-03-12T21:26:11.780Z,2.20
2019-03-12T21:31:18.623Z,2.63
2019-03-12T21:36:24.846Z,2.80
2019-03-12T21:41:31.158Z,3.30
2019-03-12T21:46:38.009Z,4.80
2019-03-12T21:51:44.351Z,3.20
2019-03-12T21:56:50.774Z,3.50
2019-03-12T22:01:57.153Z,3.87
2019-03-12T22:07:03.714Z,4.30
2019-03-12T22:12:25.133Z,3.97
2019-03-12T22:17:31.369Z,4.50
2019-03-12T22:22:48.189Z,6.40
2019-03-12T22:27:54.447Z,6.42
2019-03-12T22:33:00.699Z,6.73
2019-03-12T22:38:06.919Z,6.67
2019-03-12T22:43:13.134Z,6.97
2019-03-12T22:48:19.547Z,7.53
2019-03-12T22:53:25.771Z,7.07
2019-03-12T22:58:33.092Z,7.53
2019-03-12T23:03:57.466Z,7.10
2019-03-12T23:09:21.960Z,7.85
2019-03-12T23:14:30.139Z,7.30
2019-03-12T23:19:36.669Z,7.70
2019-03-12T23:24:43.052Z,8.13
2019-03-12T23:29:49.569Z,7.37
2019-03-12T23:34:55.992Z,8.07
2019-03-12T23:40:02.272Z,7.63
2019-03-12T23:45:09.508Z,7.87
2019-03-12T23:50:17.478Z,8.08
2019-03-12T23:55:24.912Z,8.18
